sensor_id;sensor_type;location;lat;lon;timestamp;P1;durP1;ratioP1;P2;durP2;ratioP2
13335;SDS011;6737;51.480;11.962;2023-06-26T00:01:23;6.63;;;4.07;;
13335;SDS011;6737;51.480;11.962;2023-06-26T00:03:49;4.15;;;3.70;;
13335;SDS011;6737;51.480;11.962;2023-06-26T00:06:15;6.78;;;4.55;;
13335;SDS011;6737;51.480;11.962;2023-06-26T00:08:41;8.07;;;4.32;;
13335;SDS011;6737;51.480;11.962;2023-06-26T00:11:08;4.65;;;4.25;;
13335;SDS011;6737;51.480;11.962;2023-06-26T00:13:34;4.57;;;4.18;;
13335;SDS011;6737;51.480;11.962;2023-06-26T00:16:00;7.22;;;4.65;;
13335;SDS011;6737;51.480;11.962;2023-06-26T00:18:28;6.35;;;3.83;;
13335;SDS011;6737;51.480;11.962;2023-06-26T00:20:54;6.80;;;4.70;;
13335;SDS011;6737;51.480;11.962;2023-06-26T00:23:20;5.90;;;4.75;;
13335;SDS011;6737;51.480;11.962;2023-06-26T00:25:46;5.20;;;4.70;;
13335;SDS011;6737;51.480;11.962;2023-06-26T00:28:12;5.78;;;4.70;;
13335;SDS011;6737;51.480;11.962;2023-06-26T00:30:37;5.70;;;4.50;;
13335;SDS011;6737;51.480;11.962;2023-06-26T00:33:03;6.63;;;4.97;;
13335;SDS011;6737;51.480;11.962;2023-06-26T00:35:29;6.93;;;4.75;;
13335;SDS011;6737;51.480;11.962;2023-06-26T00:37:55;7.05;;;4.40;;
13335;SDS011;6737;51.480;11.962;2023-06-26T00:40:21;6.70;;;4.72;;
13335;SDS011;6737;51.480;11.962;2023-06-26T00:42:47;6.18;;;4.90;;
13335;SDS011;6737;51.480;11.962;2023-06-26T00:45:12;5.97;;;4.90;;
13335;SDS011;6737;51.480;11.962;2023-06-26T00:47:38;9.60;;;4.68;;
13335;SDS011;6737;51.480;11.962;2023-06-26T00:50:04;5.35;;;4.68;;
13335;SDS011;6737;51.480;11.962;2023-06-26T00:52:31;6.03;;;4.80;;
13335;SDS011;6737;51.480;11.962;2023-06-26T00:54:57;7.25;;;4.93;;
13335;SDS011;6737;51.480;11.962;2023-06-26T00:57:23;7.00;;;4.70;;
13335;SDS011;6737;51.480;11.962;2023-06-26T00:59:49;5.18;;;4.38;;
13335;SDS011;6737;51.480;11.962;2023-06-26T01:02:15;5.97;;;4.80;;
13335;SDS011;6737;51.480;11.962;2023-06-26T01:04:51;6.80;;;4.75;;
13335;SDS011;6737;51.480;11.962;2023-06-26T01:07:18;5.20;;;4.70;;
13335;SDS011;6737;51.480;11.962;2023-06-26T01:09:47;7.03;;;4.93;;
13335;SDS011;6737;51.480;11.962;2023-06-26T01:12:14;7.63;;;5.70;;
13335;SDS011;6737;51.480;11.962;2023-06-26T01:14:40;6.72;;;4.97;;
13335;SDS011;6737;51.480;11.962;2023-06-26T01:17:06;6.85;;;5.05;;
13335;SDS011;6737;51.480;11.962;2023-06-26T01:19:37;7.03;;;4.80;;
13335;SDS011;6737;51.480;11.962;2023-06-26T01:22:14;7.53;;;4.88;;
13335;SDS011;6737;51.480;11.962;2023-06-26T01:25:20;6.88;;;4.95;;
13335;SDS011;6737;51.480;11.962;2023-06-26T01:27:54;6.18;;;4.90;;
13335;SDS011;6737;51.480;11.962;2023-06-26T01:30:20;6.00;;;5.35;;
13335;SDS011;6737;51.480;11.962;2023-06-26T01:32:47;5.60;;;5.10;;
13335;SDS011;6737;51.480;11.962;2023-06-26T01:35:14;5.28;;;4.55;;
13335;SDS011;6737;51.480;11.962;2023-06-26T01:37:41;5.75;;;5.00;;
13335;SDS011;6737;51.480;11.962;2023-06-26T01:40:07;5.90;;;5.00;;
13335;SDS011;6737;51.480;11.962;2023-06-26T01:42:34;5.93;;;4.90;;
13335;SDS011;6737;51.480;11.962;2023-06-26T01:45:33;6.38;;;4.95;;
13335;SDS011;6737;51.480;11.962;2023-06-26T01:47:54;8.32;;;5.28;;
13335;SDS011;6737;51.480;11.962;2023-06-26T01:50:26;6.20;;;4.95;;
13335;SDS011;6737;51.480;11.962;2023-06-26T01:55:42;6.15;;;5.25;;
13335;SDS011;6737;51.480;11.962;2023-06-26T01:58:22;5.55;;;5.05;;
13335;SDS011;6737;51.480;11.962;2023-06-26T02:00:50;6.45;;;5.22;;
13335;SDS011;6737;51.480;11.962;2023-06-26T02:03:16;8.77;;;5.57;;
13335;SDS011;6737;51.480;11.962;2023-06-26T02:05:42;9.88;;;5.60;;
13335;SDS011;6737;51.480;11.962;2023-06-26T02:08:08;7.55;;;5.00;;
13335;SDS011;6737;51.480;11.962;2023-06-26T02:10:34;8.77;;;4.90;;
13335;SDS011;6737;51.480;11.962;2023-06-26T02:13:00;7.28;;;5.10;;
13335;SDS011;6737;51.480;11.962;2023-06-26T02:15:26;9.07;;;5.60;;
13335;SDS011;6737;51.480;11.962;2023-06-26T02:17:52;6.57;;;4.97;;
13335;SDS011;6737;51.480;11.962;2023-06-26T02:20:17;6.50;;;5.30;;
13335;SDS011;6737;51.480;11.962;2023-06-26T02:22:43;8.20;;;5.45;;
13335;SDS011;6737;51.480;11.962;2023-06-26T02:25:09;8.38;;;5.80;;
13335;SDS011;6737;51.480;11.962;2023-06-26T02:27:37;6.05;;;5.30;;
13335;SDS011;6737;51.480;11.962;2023-06-26T02:30:03;6.70;;;5.45;;
13335;SDS011;6737;51.480;11.962;2023-06-26T02:32:30;6.22;;;5.35;;
13335;SDS011;6737;51.480;11.962;2023-06-26T02:34:55;7.30;;;5.57;;
13335;SDS011;6737;51.480;11.962;2023-06-26T02:37:21;6.63;;;5.38;;
13335;SDS011;6737;51.480;11.962;2023-06-26T02:39:47;7.35;;;5.97;;
13335;SDS011;6737;51.480;11.962;2023-06-26T02:42:13;7.20;;;5.25;;
13335;SDS011;6737;51.480;11.962;2023-06-26T02:44:39;7.53;;;5.05;;
13335;SDS011;6737;51.480;11.962;2023-06-26T02:47:04;7.72;;;5.43;;
13335;SDS011;6737;51.480;11.962;2023-06-26T02:49:30;5.97;;;5.28;;
13335;SDS011;6737;51.480;11.962;2023-06-26T02:51:56;9.23;;;5.38;;
13335;SDS011;6737;51.480;11.962;2023-06-26T02:54:22;6.90;;;5.28;;
13335;SDS011;6737;51.480;11.962;2023-06-26T02:56:48;6.65;;;5.22;;
13335;SDS011;6737;51.480;11.962;2023-06-26T02:59:14;6.32;;;5.20;;
13335;SDS011;6737;51.480;11.962;2023-06-26T03:01:40;7.55;;;5.70;;
13335;SDS011;6737;51.480;11.962;2023-06-26T03:04:06;7.72;;;5.43;;
13335;SDS011;6737;51.480;11.962;2023-06-26T03:06:32;8.02;;;5.13;;
13335;SDS011;6737;51.480;11.962;2023-06-26T03:08:57;8.98;;;5.55;;
13335;SDS011;6737;51.480;11.962;2023-06-26T03:11:23;6.75;;;5.28;;
13335;SDS011;6737;51.480;11.962;2023-06-26T03:13:49;7.47;;;5.57;;
13335;SDS011;6737;51.480;11.962;2023-06-26T03:16:15;7.38;;;5.97;;
13335;SDS011;6737;51.480;11.962;2023-06-26T03:18:41;7.40;;;5.68;;
13335;SDS011;6737;51.480;11.962;2023-06-26T03:21:06;8.43;;;6.10;;
13335;SDS011;6737;51.480;11.962;2023-06-26T03:23:34;6.72;;;5.20;;
13335;SDS011;6737;51.480;11.962;2023-06-26T03:25:59;6.78;;;5.22;;
13335;SDS011;6737;51.480;11.962;2023-06-26T03:28:25;5.60;;;4.88;;
13335;SDS011;6737;51.480;11.962;2023-06-26T03:30:51;6.00;;;4.97;;
13335;SDS011;6737;51.480;11.962;2023-06-26T03:33:17;7.65;;;5.70;;
13335;SDS011;6737;51.480;11.962;2023-06-26T03:35:43;7.03;;;5.35;;
13335;SDS011;6737;51.480;11.962;2023-06-26T03:38:09;7.63;;;5.30;;
13335;SDS011;6737;51.480;11.962;2023-06-26T03:40:35;6.75;;;5.60;;
13335;SDS011;6737;51.480;11.962;2023-06-26T03:43:01;7.78;;;5.60;;
13335;SDS011;6737;51.480;11.962;2023-06-26T03:45:26;6.60;;;5.18;;
13335;SDS011;6737;51.480;11.962;2023-06-26T03:47:52;6.50;;;5.40;;
13335;SDS011;6737;51.480;11.962;2023-06-26T03:50:18;6.63;;;5.57;;
13335;SDS011;6737;51.480;11.962;2023-06-26T03:52:45;6.57;;;5.65;;
13335;SDS011;6737;51.480;11.962;2023-06-26T03:55:11;8.73;;;5.30;;
13335;SDS011;6737;51.480;11.962;2023-06-26T03:57:36;12.02;;;5.32;;
13335;SDS011;6737;51.480;11.962;2023-06-26T04:00:02;6.20;;;5.38;;
13335;SDS011;6737;51.480;11.962;2023-06-26T04:02:37;5.95;;;5.07;;
13335;SDS011;6737;51.480;11.962;2023-06-26T04:05:04;5.78;;;4.97;;
13335;SDS011;6737;51.480;11.962;2023-06-26T04:07:30;8.75;;;5.10;;
13335;SDS011;6737;51.480;11.962;2023-06-26T04:09:56;6.65;;;5.68;;
13335;SDS011;6737;51.480;11.962;2023-06-26T04:12:22;6.95;;;5.40;;
13335;SDS011;6737;51.480;11.962;2023-06-26T04:14:48;6.70;;;5.97;;
13335;SDS011;6737;51.480;11.962;2023-06-26T04:17:14;7.82;;;6.28;;
13335;SDS011;6737;51.480;11.962;2023-06-26T04:19:41;6.75;;;5.80;;
13335;SDS011;6737;51.480;11.962;2023-06-26T04:22:07;10.07;;;5.78;;
13335;SDS011;6737;51.480;11.962;2023-06-26T04:24:32;6.75;;;6.03;;
13335;SDS011;6737;51.480;11.962;2023-06-26T04:26:58;7.18;;;5.80;;
13335;SDS011;6737;51.480;11.962;2023-06-26T04:29:27;7.97;;;6.07;;
13335;SDS011;6737;51.480;11.962;2023-06-26T04:31:53;7.93;;;5.30;;
13335;SDS011;6737;51.480;11.962;2023-06-26T04:34:26;6.78;;;5.82;;
13335;SDS011;6737;51.480;11.962;2023-06-26T04:36:53;12.63;;;5.95;;
13335;SDS011;6737;51.480;11.962;2023-06-26T04:39:20;8.88;;;5.20;;
13335;SDS011;6737;51.480;11.962;2023-06-26T04:41:45;10.10;;;5.82;;
13335;SDS011;6737;51.480;11.962;2023-06-26T04:44:11;9.43;;;6.07;;
13335;SDS011;6737;51.480;11.962;2023-06-26T04:46:37;10.02;;;6.03;;
13335;SDS011;6737;51.480;11.962;2023-06-26T04:49:07;10.02;;;6.25;;
13335;SDS011;6737;51.480;11.962;2023-06-26T04:51:33;9.32;;;6.53;;
13335;SDS011;6737;51.480;11.962;2023-06-26T04:54:05;7.47;;;5.60;;
13335;SDS011;6737;51.480;11.962;2023-06-26T04:56:36;8.98;;;6.05;;
13335;SDS011;6737;51.480;11.962;2023-06-26T04:59:05;7.18;;;5.55;;
13335;SDS011;6737;51.480;11.962;2023-06-26T05:01:31;10.48;;;6.18;;
13335;SDS011;6737;51.480;11.962;2023-06-26T05:03:57;7.60;;;5.75;;
13335;SDS011;6737;51.480;11.962;2023-06-26T05:06:24;10.10;;;5.32;;
13335;SDS011;6737;51.480;11.962;2023-06-26T05:08:49;6.80;;;5.47;;
13335;SDS011;6737;51.480;11.962;2023-06-26T05:11:15;7.55;;;5.50;;
13335;SDS011;6737;51.480;11.962;2023-06-26T05:13:41;7.70;;;5.82;;
13335;SDS011;6737;51.480;11.962;2023-06-26T05:16:08;10.00;;;5.88;;
13335;SDS011;6737;51.480;11.962;2023-06-26T05:18:34;6.18;;;5.47;;
13335;SDS011;6737;51.480;11.962;2023-06-26T05:21:01;9.45;;;5.88;;
13335;SDS011;6737;51.480;11.962;2023-06-26T05:23:28;10.00;;;6.03;;
13335;SDS011;6737;51.480;11.962;2023-06-26T05:25:57;8.82;;;6.10;;
13335;SDS011;6737;51.480;11.962;2023-06-26T05:28:23;8.05;;;6.07;;
13335;SDS011;6737;51.480;11.962;2023-06-26T05:30:50;6.65;;;5.68;;
13335;SDS011;6737;51.480;11.962;2023-06-26T05:33:17;10.77;;;6.10;;
13335;SDS011;6737;51.480;11.962;2023-06-26T05:35:47;10.13;;;6.05;;
13335;SDS011;6737;51.480;11.962;2023-06-26T05:38:13;13.75;;;6.38;;
13335;SDS011;6737;51.480;11.962;2023-06-26T05:40:40;9.85;;;6.40;;
13335;SDS011;6737;51.480;11.962;2023-06-26T05:43:06;8.30;;;5.97;;
13335;SDS011;6737;51.480;11.962;2023-06-26T05:45:32;9.45;;;5.82;;
13335;SDS011;6737;51.480;11.962;2023-06-26T05:47:58;8.70;;;5.68;;
13335;SDS011;6737;51.480;11.962;2023-06-26T05:50:24;10.70;;;5.97;;
13335;SDS011;6737;51.480;11.962;2023-06-26T05:52:51;8.85;;;5.72;;
13335;SDS011;6737;51.480;11.962;2023-06-26T05:55:17;11.50;;;6.45;;
13335;SDS011;6737;51.480;11.962;2023-06-26T05:57:43;10.77;;;5.53;;
13335;SDS011;6737;51.480;11.962;2023-06-26T06:00:12;10.52;;;6.05;;
13335;SDS011;6737;51.480;11.962;2023-06-26T06:02:38;8.80;;;6.25;;
13335;SDS011;6737;51.480;11.962;2023-06-26T06:05:06;10.10;;;6.15;;
13335;SDS011;6737;51.480;11.962;2023-06-26T06:07:33;12.25;;;6.57;;
13335;SDS011;6737;51.480;11.962;2023-06-26T06:09:59;9.90;;;6.70;;
13335;SDS011;6737;51.480;11.962;2023-06-26T06:12:26;10.63;;;6.65;;
13335;SDS011;6737;51.480;11.962;2023-06-26T06:14:52;9.57;;;6.25;;
13335;SDS011;6737;51.480;11.962;2023-06-26T06:17:21;9.43;;;6.07;;
13335;SDS011;6737;51.480;11.962;2023-06-26T06:19:47;9.85;;;5.82;;
13335;SDS011;6737;51.480;11.962;2023-06-26T06:22:13;10.32;;;6.03;;
13335;SDS011;6737;51.480;11.962;2023-06-26T06:24:39;10.80;;;6.38;;
13335;SDS011;6737;51.480;11.962;2023-06-26T06:27:05;9.95;;;5.90;;
13335;SDS011;6737;51.480;11.962;2023-06-26T06:29:30;8.77;;;5.60;;
13335;SDS011;6737;51.480;11.962;2023-06-26T06:31:56;9.80;;;5.65;;
13335;SDS011;6737;51.480;11.962;2023-06-26T06:34:22;7.45;;;5.88;;
13335;SDS011;6737;51.480;11.962;2023-06-26T06:36:48;7.10;;;5.88;;
13335;SDS011;6737;51.480;11.962;2023-06-26T06:39:15;7.20;;;5.82;;
13335;SDS011;6737;51.480;11.962;2023-06-26T06:41:41;11.45;;;6.03;;
13335;SDS011;6737;51.480;11.962;2023-06-26T06:44:07;10.93;;;5.72;;
13335;SDS011;6737;51.480;11.962;2023-06-26T06:46:33;6.25;;;5.40;;
13335;SDS011;6737;51.480;11.962;2023-06-26T06:48:59;8.55;;;5.43;;
13335;SDS011;6737;51.480;11.962;2023-06-26T06:51:25;11.93;;;6.25;;
13335;SDS011;6737;51.480;11.962;2023-06-26T06:53:51;8.20;;;5.97;;
13335;SDS011;6737;51.480;11.962;2023-06-26T06:56:17;11.45;;;6.28;;
13335;SDS011;6737;51.480;11.962;2023-06-26T06:58:42;7.32;;;5.85;;
13335;SDS011;6737;51.480;11.962;2023-06-26T07:01:11;8.40;;;5.63;;
13335;SDS011;6737;51.480;11.962;2023-06-26T07:03:39;10.52;;;5.78;;
13335;SDS011;6737;51.480;11.962;2023-06-26T07:06:05;9.43;;;5.68;;
13335;SDS011;6737;51.480;11.962;2023-06-26T07:08:31;10.20;;;6.07;;
13335;SDS011;6737;51.480;11.962;2023-06-26T07:10:56;9.70;;;5.95;;
13335;SDS011;6737;51.480;11.962;2023-06-26T07:13:22;10.07;;;5.43;;
13335;SDS011;6737;51.480;11.962;2023-06-26T07:15:48;9.38;;;5.70;;
13335;SDS011;6737;51.480;11.962;2023-06-26T07:18:14;7.43;;;5.53;;
13335;SDS011;6737;51.480;11.962;2023-06-26T07:20:40;7.40;;;5.15;;
13335;SDS011;6737;51.480;11.962;2023-06-26T07:23:07;9.18;;;5.57;;
13335;SDS011;6737;51.480;11.962;2023-06-26T07:25:33;6.90;;;5.13;;
13335;SDS011;6737;51.480;11.962;2023-06-26T07:27:59;7.25;;;5.70;;
13335;SDS011;6737;51.480;11.962;2023-06-26T07:30:25;6.82;;;5.15;;
13335;SDS011;6737;51.480;11.962;2023-06-26T07:32:51;7.20;;;5.45;;
13335;SDS011;6737;51.480;11.962;2023-06-26T07:35:17;7.40;;;5.03;;
13335;SDS011;6737;51.480;11.962;2023-06-26T07:37:42;7.82;;;5.22;;
13335;SDS011;6737;51.480;11.962;2023-06-26T07:40:08;8.18;;;5.85;;
13335;SDS011;6737;51.480;11.962;2023-06-26T07:42:35;6.20;;;5.10;;
13335;SDS011;6737;51.480;11.962;2023-06-26T07:45:01;9.00;;;5.57;;
13335;SDS011;6737;51.480;11.962;2023-06-26T07:47:30;7.00;;;5.65;;
13335;SDS011;6737;51.480;11.962;2023-06-26T07:49:56;7.72;;;5.50;;
13335;SDS011;6737;51.480;11.962;2023-06-26T07:52:21;6.38;;;5.40;;
13335;SDS011;6737;51.480;11.962;2023-06-26T07:54:47;5.95;;;5.20;;
13335;SDS011;6737;51.480;11.962;2023-06-26T07:57:13;7.10;;;5.50;;
13335;SDS011;6737;51.480;11.962;2023-06-26T07:59:39;7.95;;;5.63;;
13335;SDS011;6737;51.480;11.962;2023-06-26T08:02:05;6.43;;;5.30;;
13335;SDS011;6737;51.480;11.962;2023-06-26T08:04:31;6.47;;;4.90;;
13335;SDS011;6737;51.480;11.962;2023-06-26T08:06:59;7.75;;;5.00;;
13335;SDS011;6737;51.480;11.962;2023-06-26T08:09:27;6.05;;;5.40;;
13335;SDS011;6737;51.480;11.962;2023-06-26T08:11:54;5.55;;;5.00;;
13335;SDS011;6737;51.480;11.962;2023-06-26T08:14:22;7.55;;;5.30;;
13335;SDS011;6737;51.480;11.962;2023-06-26T08:16:48;8.55;;;5.20;;
13335;SDS011;6737;51.480;11.962;2023-06-26T08:19:15;7.05;;;5.05;;
13335;SDS011;6737;51.480;11.962;2023-06-26T08:21:42;5.72;;;4.85;;
13335;SDS011;6737;51.480;11.962;2023-06-26T08:24:09;11.25;;;4.90;;
13335;SDS011;6737;51.480;11.962;2023-06-26T08:26:35;7.72;;;4.85;;
13335;SDS011;6737;51.480;11.962;2023-06-26T08:29:01;6.10;;;5.03;;
13335;SDS011;6737;51.480;11.962;2023-06-26T08:31:37;6.47;;;5.22;;
13335;SDS011;6737;51.480;11.962;2023-06-26T08:34:03;5.40;;;4.90;;
13335;SDS011;6737;51.480;11.962;2023-06-26T08:36:30;5.45;;;4.95;;
13335;SDS011;6737;51.480;11.962;2023-06-26T08:38:56;7.05;;;5.15;;
13335;SDS011;6737;51.480;11.962;2023-06-26T08:41:22;6.70;;;4.90;;
13335;SDS011;6737;51.480;11.962;2023-06-26T08:43:48;6.10;;;4.65;;
13335;SDS011;6737;51.480;11.962;2023-06-26T08:46:16;9.60;;;5.20;;
13335;SDS011;6737;51.480;11.962;2023-06-26T08:48:56;5.75;;;5.07;;
13335;SDS011;6737;51.480;11.962;2023-06-26T08:51:28;5.68;;;4.80;;
13335;SDS011;6737;51.480;11.962;2023-06-26T08:53:59;5.40;;;4.75;;
13335;SDS011;6737;51.480;11.962;2023-06-26T08:56:32;6.80;;;4.78;;
13335;SDS011;6737;51.480;11.962;2023-06-26T08:59:03;5.88;;;4.40;;
13335;SDS011;6737;51.480;11.962;2023-06-26T09:01:30;5.82;;;4.90;;
13335;SDS011;6737;51.480;11.962;2023-06-26T09:03:57;5.25;;;4.43;;
13335;SDS011;6737;51.480;11.962;2023-06-26T09:06:22;4.72;;;4.30;;
13335;SDS011;6737;51.480;11.962;2023-06-26T09:08:48;6.80;;;4.60;;
13335;SDS011;6737;51.480;11.962;2023-06-26T09:11:14;5.78;;;4.90;;
13335;SDS011;6737;51.480;11.962;2023-06-26T09:13:40;4.90;;;4.35;;
13335;SDS011;6737;51.480;11.962;2023-06-26T09:16:06;9.18;;;4.85;;
13335;SDS011;6737;51.480;11.962;2023-06-26T09:18:36;6.57;;;4.72;;
13335;SDS011;6737;51.480;11.962;2023-06-26T09:21:08;7.13;;;4.72;;
13335;SDS011;6737;51.480;11.962;2023-06-26T09:23:34;5.38;;;4.60;;
13335;SDS011;6737;51.480;11.962;2023-06-26T09:26:04;4.65;;;4.20;;
13335;SDS011;6737;51.480;11.962;2023-06-26T09:28:34;6.90;;;4.65;;
13335;SDS011;6737;51.480;11.962;2023-06-26T09:31:01;6.18;;;4.50;;
13335;SDS011;6737;51.480;11.962;2023-06-26T09:33:33;7.05;;;4.47;;
13335;SDS011;6737;51.480;11.962;2023-06-26T09:36:01;5.97;;;4.65;;
13335;SDS011;6737;51.480;11.962;2023-06-26T09:38:30;8.35;;;4.70;;
13335;SDS011;6737;51.480;11.962;2023-06-26T09:40:56;7.28;;;4.40;;
13335;SDS011;6737;51.480;11.962;2023-06-26T09:43:22;5.30;;;4.75;;
13335;SDS011;6737;51.480;11.962;2023-06-26T09:45:48;7.03;;;4.30;;
13335;SDS011;6737;51.480;11.962;2023-06-26T09:48:14;4.75;;;4.28;;
13335;SDS011;6737;51.480;11.962;2023-06-26T09:50:41;4.70;;;4.18;;
13335;SDS011;6737;51.480;11.962;2023-06-26T09:53:08;5.30;;;4.80;;
13335;SDS011;6737;51.480;11.962;2023-06-26T09:55:35;5.32;;;4.55;;
13335;SDS011;6737;51.480;11.962;2023-06-26T09:58:02;5.43;;;4.30;;
13335;SDS011;6737;51.480;11.962;2023-06-26T10:00:30;7.25;;;4.35;;
13335;SDS011;6737;51.480;11.962;2023-06-26T10:02:57;5.90;;;4.70;;
13335;SDS011;6737;51.480;11.962;2023-06-26T10:05:26;6.00;;;4.40;;
13335;SDS011;6737;51.480;11.962;2023-06-26T10:07:52;6.30;;;4.63;;
13335;SDS011;6737;51.480;11.962;2023-06-26T10:10:21;5.78;;;4.20;;
13335;SDS011;6737;51.480;11.962;2023-06-26T10:12:51;4.53;;;4.10;;
13335;SDS011;6737;51.480;11.962;2023-06-26T10:15:25;6.25;;;4.30;;
13335;SDS011;6737;51.480;11.962;2023-06-26T10:17:55;5.60;;;4.35;;
13335;SDS011;6737;51.480;11.962;2023-06-26T10:20:22;6.10;;;4.40;;
13335;SDS011;6737;51.480;11.962;2023-06-26T10:22:51;5.35;;;4.45;;
13335;SDS011;6737;51.480;11.962;2023-06-26T10:25:19;6.60;;;4.10;;
13335;SDS011;6737;51.480;11.962;2023-06-26T10:27:47;5.10;;;4.47;;
13335;SDS011;6737;51.480;11.962;2023-06-26T10:30:19;6.70;;;4.55;;
13335;SDS011;6737;51.480;11.962;2023-06-26T10:32:48;7.43;;;4.70;;
13335;SDS011;6737;51.480;11.962;2023-06-26T10:35:15;6.43;;;4.38;;
13335;SDS011;6737;51.480;11.962;2023-06-26T10:40:12;4.90;;;4.28;;
13335;SDS011;6737;51.480;11.962;2023-06-26T10:42:39;4.75;;;4.20;;
13335;SDS011;6737;51.480;11.962;2023-06-26T10:45:23;6.13;;;4.38;;
13335;SDS011;6737;51.480;11.962;2023-06-26T10:47:53;5.60;;;5.03;;
13335;SDS011;6737;51.480;11.962;2023-06-26T10:50:26;5.15;;;4.65;;
13335;SDS011;6737;51.480;11.962;2023-06-26T10:53:09;6.93;;;4.45;;
13335;SDS011;6737;51.480;11.962;2023-06-26T10:56:01;8.18;;;4.90;;
13335;SDS011;6737;51.480;11.962;2023-06-26T11:03:40;5.15;;;4.65;;
13335;SDS011;6737;51.480;11.962;2023-06-26T11:06:10;5.07;;;4.68;;
13335;SDS011;6737;51.480;11.962;2023-06-26T11:09:00;5.32;;;4.57;;
13335;SDS011;6737;51.480;11.962;2023-06-26T11:14:17;5.13;;;4.50;;
13335;SDS011;6737;51.480;11.962;2023-06-26T11:16:44;5.35;;;4.85;;
13335;SDS011;6737;51.480;11.962;2023-06-26T11:19:10;7.93;;;5.03;;
13335;SDS011;6737;51.480;11.962;2023-06-26T11:21:38;5.20;;;4.70;;
13335;SDS011;6737;51.480;11.962;2023-06-26T11:24:05;6.00;;;4.68;;
13335;SDS011;6737;51.480;11.962;2023-06-26T11:26:40;5.32;;;4.82;;
13335;SDS011;6737;51.480;11.962;2023-06-26T11:29:07;4.95;;;4.55;;
13335;SDS011;6737;51.480;11.962;2023-06-26T11:31:35;5.05;;;4.55;;
13335;SDS011;6737;51.480;11.962;2023-06-26T11:34:03;5.70;;;4.60;;
13335;SDS011;6737;51.480;11.962;2023-06-26T11:36:31;5.88;;;4.70;;
13335;SDS011;6737;51.480;11.962;2023-06-26T11:39:01;4.70;;;4.30;;
13335;SDS011;6737;51.480;11.962;2023-06-26T11:41:36;4.97;;;4.47;;
13335;SDS011;6737;51.480;11.962;2023-06-26T11:44:04;7.13;;;4.32;;
13335;SDS011;6737;51.480;11.962;2023-06-26T11:46:34;5.00;;;4.50;;
13335;SDS011;6737;51.480;11.962;2023-06-26T11:49:04;5.70;;;4.70;;
13335;SDS011;6737;51.480;11.962;2023-06-26T11:51:31;6.45;;;4.90;;
13335;SDS011;6737;51.480;11.962;2023-06-26T11:53:57;5.78;;;4.47;;
13335;SDS011;6737;51.480;11.962;2023-06-26T11:56:26;4.85;;;4.35;;
13335;SDS011;6737;51.480;11.962;2023-06-26T11:59:08;6.45;;;4.40;;
13335;SDS011;6737;51.480;11.962;2023-06-26T12:01:36;7.10;;;4.85;;
13335;SDS011;6737;51.480;11.962;2023-06-26T12:04:12;5.93;;;4.93;;
13335;SDS011;6737;51.480;11.962;2023-06-26T12:06:42;6.95;;;4.80;;
13335;SDS011;6737;51.480;11.962;2023-06-26T12:09:11;8.70;;;4.75;;
13335;SDS011;6737;51.480;11.962;2023-06-26T12:11:39;5.82;;;4.80;;
13335;SDS011;6737;51.480;11.962;2023-06-26T12:14:07;7.40;;;5.18;;
13335;SDS011;6737;51.480;11.962;2023-06-26T12:16:34;6.53;;;4.65;;
13335;SDS011;6737;51.480;11.962;2023-06-26T12:19:04;4.78;;;4.30;;
13335;SDS011;6737;51.480;11.962;2023-06-26T12:24:03;6.43;;;4.70;;
13335;SDS011;6737;51.480;11.962;2023-06-26T12:26:30;6.95;;;5.07;;
13335;SDS011;6737;51.480;11.962;2023-06-26T12:29:08;5.15;;;4.60;;
13335;SDS011;6737;51.480;11.962;2023-06-26T12:31:39;7.38;;;4.55;;
13335;SDS011;6737;51.480;11.962;2023-06-26T12:34:10;5.82;;;4.60;;
13335;SDS011;6737;51.480;11.962;2023-06-26T12:36:49;6.00;;;5.00;;
13335;SDS011;6737;51.480;11.962;2023-06-26T12:39:20;5.78;;;4.63;;
13335;SDS011;6737;51.480;11.962;2023-06-26T12:41:47;5.20;;;4.68;;
13335;SDS011;6737;51.480;11.962;2023-06-26T12:44:17;5.22;;;4.72;;
13335;SDS011;6737;51.480;11.962;2023-06-26T12:46:54;5.97;;;4.55;;
13335;SDS011;6737;51.480;11.962;2023-06-26T12:49:28;6.72;;;4.57;;
13335;SDS011;6737;51.480;11.962;2023-06-26T12:52:01;7.05;;;4.95;;
13335;SDS011;6737;51.480;11.962;2023-06-26T12:54:33;5.20;;;4.03;;
13335;SDS011;6737;51.480;11.962;2023-06-26T12:57:00;5.68;;;4.65;;
13335;SDS011;6737;51.480;11.962;2023-06-26T12:59:26;5.47;;;4.97;;
13335;SDS011;6737;51.480;11.962;2023-06-26T13:01:51;7.45;;;4.63;;
13335;SDS011;6737;51.480;11.962;2023-06-26T13:04:18;5.10;;;4.60;;
13335;SDS011;6737;51.480;11.962;2023-06-26T13:06:44;4.95;;;4.45;;
13335;SDS011;6737;51.480;11.962;2023-06-26T13:09:10;6.35;;;5.30;;
13335;SDS011;6737;51.480;11.962;2023-06-26T13:11:36;8.90;;;4.72;;
13335;SDS011;6737;51.480;11.962;2023-06-26T13:14:02;6.65;;;4.82;;
13335;SDS011;6737;51.480;11.962;2023-06-26T13:16:29;6.47;;;4.90;;
13335;SDS011;6737;51.480;11.962;2023-06-26T13:18:55;6.43;;;4.53;;
13335;SDS011;6737;51.480;11.962;2023-06-26T13:21:23;5.70;;;4.90;;
13335;SDS011;6737;51.480;11.962;2023-06-26T13:23:49;8.60;;;4.70;;
13335;SDS011;6737;51.480;11.962;2023-06-26T13:26:15;5.80;;;4.50;;
13335;SDS011;6737;51.480;11.962;2023-06-26T13:28:40;7.13;;;4.80;;
13335;SDS011;6737;51.480;11.962;2023-06-26T13:31:06;9.73;;;5.05;;
13335;SDS011;6737;51.480;11.962;2023-06-26T13:33:32;24.58;;;5.93;;
13335;SDS011;6737;51.480;11.962;2023-06-26T13:35:58;12.10;;;6.07;;
13335;SDS011;6737;51.480;11.962;2023-06-26T13:38:24;12.80;;;6.55;;
13335;SDS011;6737;51.480;11.962;2023-06-26T13:40:51;20.17;;;7.55;;
13335;SDS011;6737;51.480;11.962;2023-06-26T13:43:17;16.13;;;8.45;;
13335;SDS011;6737;51.480;11.962;2023-06-26T13:45:44;20.98;;;9.73;;
13335;SDS011;6737;51.480;11.962;2023-06-26T13:48:09;19.52;;;10.10;;
13335;SDS011;6737;51.480;11.962;2023-06-26T13:50:35;16.38;;;10.95;;
13335;SDS011;6737;51.480;11.962;2023-06-26T13:53:01;19.27;;;10.63;;
13335;SDS011;6737;51.480;11.962;2023-06-26T13:55:27;17.52;;;10.38;;
13335;SDS011;6737;51.480;11.962;2023-06-26T13:57:53;14.55;;;8.60;;
13335;SDS011;6737;51.480;11.962;2023-06-26T14:00:19;10.65;;;9.07;;
13335;SDS011;6737;51.480;11.962;2023-06-26T14:02:45;14.43;;;9.50;;
13335;SDS011;6737;51.480;11.962;2023-06-26T14:05:12;11.50;;;8.80;;
13335;SDS011;6737;51.480;11.962;2023-06-26T14:07:37;12.40;;;8.90;;
13335;SDS011;6737;51.480;11.962;2023-06-26T14:10:03;14.80;;;8.57;;
13335;SDS011;6737;51.480;11.962;2023-06-26T14:12:31;12.93;;;8.05;;
13335;SDS011;6737;51.480;11.962;2023-06-26T14:14:58;13.07;;;8.00;;
13335;SDS011;6737;51.480;11.962;2023-06-26T14:17:24;9.38;;;7.80;;
13335;SDS011;6737;51.480;11.962;2023-06-26T14:19:51;10.20;;;8.27;;
13335;SDS011;6737;51.480;11.962;2023-06-26T14:22:17;11.38;;;8.45;;
13335;SDS011;6737;51.480;11.962;2023-06-26T14:24:43;9.85;;;7.30;;
13335;SDS011;6737;51.480;11.962;2023-06-26T14:27:09;9.32;;;7.75;;
13335;SDS011;6737;51.480;11.962;2023-06-26T14:29:36;10.50;;;7.95;;
13335;SDS011;6737;51.480;11.962;2023-06-26T14:32:02;11.05;;;7.75;;
13335;SDS011;6737;51.480;11.962;2023-06-26T14:34:28;11.60;;;7.90;;
13335;SDS011;6737;51.480;11.962;2023-06-26T14:36:54;10.43;;;7.40;;
13335;SDS011;6737;51.480;11.962;2023-06-26T14:39:20;10.10;;;7.68;;
13335;SDS011;6737;51.480;11.962;2023-06-26T14:41:46;8.48;;;6.72;;
13335;SDS011;6737;51.480;11.962;2023-06-26T14:44:15;8.43;;;7.30;;
13335;SDS011;6737;51.480;11.962;2023-06-26T14:46:41;12.63;;;7.60;;
13335;SDS011;6737;51.480;11.962;2023-06-26T14:49:07;13.88;;;7.78;;
13335;SDS011;6737;51.480;11.962;2023-06-26T14:51:33;10.57;;;7.95;;
13335;SDS011;6737;51.480;11.962;2023-06-26T14:53:59;13.43;;;8.05;;
13335;SDS011;6737;51.480;11.962;2023-06-26T14:56:26;10.90;;;7.47;;
13335;SDS011;6737;51.480;11.962;2023-06-26T14:58:51;10.80;;;7.57;;
13335;SDS011;6737;51.480;11.962;2023-06-26T15:01:20;8.75;;;7.40;;
13335;SDS011;6737;51.480;11.962;2023-06-26T15:03:47;11.73;;;7.45;;